• Join FlightAware (Why Join?)
  • Login
  • US Flag 
06:12AM EDT


 

Airport Tracker/Info


-or-


 

Live Flight TrackerFlight Track Log ✈ CSJ405 ✈ 06-May-2013 ✈ KROC - CYHM

Flight Track Log - Related Links

Times and Time Zones

All times are in EDT time to prevent confusion due to time zone crossing. See the CSJ405 flight status page for this flight to view local times or setup timezone preferences in your user account.

Time Position Orientation Groundspeed Altitude Reporting Facility
EDT Latitude Longitude Course Direction KTS MPH feet Rate Location/Type
09:43PM 43.1294 -77.6417 62° Northeast 104 120 1,400  Level Cleveland Center
09:44PM 43.1508 -77.6692 317° Northwest 127 146 2,300 840 Climbing Cleveland Center
09:45PM 43.1583 -77.7172 282° West 134 154 3,100 780 Climbing Cleveland Center
09:46PM 43.1617 -77.7683 275° West 134 154 3,900 480 Climbing Cleveland Center
09:47PM 43.1694 -77.8250 281° West 153 176 4,100  Climbing Cleveland Center
09:48PM 43.1728 -77.8875 274° West 172 198 4,000 -60 Descending Cleveland Center
09:49PM 43.1764 -77.9556 274° West 166 191 4,000  Level Cleveland Center
09:50PM 43.1842 -78.0208 279° West 171 197 4,000  Level Cleveland Center
09:52PM 43.1833 -78.1167 269° West 167 192 4,000  Level Buffalo TRACON
09:53PM 43.1667 -78.1500 236° Southwest 170 196 4,000  Level Toronto Center
09:54PM 43.1667 -78.2167 270° West 170 196 4,000  Level Toronto Center
09:55PM 43.1667 -78.2667 270° West 170 196 4,000  Level Toronto Center
09:56PM 43.1667 -78.3333 270° West 170 196 4,100  Climbing Toronto Center
09:57PM 43.1667 -78.4000 270° West 180 207 4,000 -60 Descending Toronto Center
09:58PM 43.1667 -78.4667 270° West 170 196 4,000  Level Toronto Center
09:59PM 43.1833 -78.5333 289° West 170 196 4,100  Climbing Toronto Center
10:01PM 43.1833 -78.6667 270° West 170 196 4,000 -60 Descending Toronto Center
10:02PM 43.1833 -78.7333 270° West 180 207 4,000  Level Toronto Center
10:04PM 43.1667 -78.8833 261° West 170 196 4,000  Level Toronto Center
10:05PM 43.1667 -78.9167 270° West 170 196 4,100  Climbing Toronto Center
10:06PM 43.1667 -79.0000 270° West 180 207 4,100  Level Toronto Center
10:08PM 43.1667 -79.1333 270° West 170 196 4,100  Level Toronto Center
10:09PM 43.1667 -79.2000 270° West 170 196 4,100  Level Toronto Center
10:10PM 43.1667 -79.2667 270° West 170 196 4,100 -60 Level Toronto Center
10:11PM 43.1667 -79.3167 270° West 170 196 4,000  Descending Toronto Center
10:13PM 43.1667 -79.4500 270° West 170 196 4,100  Climbing Toronto Center
10:14PM 43.1667 -79.5167 270° West 170 196 4,100 -300 Level Toronto Center
10:16PM 43.1667 -79.6500 270° West 180 207 3,300 -480 Descending Toronto Center
10:17PM 43.1500 -79.7167 251° West 190 219 2,800 -360 Descending Toronto Center
10:18PM 43.1500 -79.8000 270° West 180 207 2,600 -600 Descending Toronto Center
10:19PM 43.1500 -79.8333 270° West 170 196 1,600 -840 Descending Toronto Center
10:20PM 43.1667 -79.8833 295° West 120 138 1,000 -420 Descending Toronto Center
10:21PM 43.1667 -79.9000 270° West 70 81 800 -240 Descending Toronto Center